CheckWX is a tool to help pilots better visualize weather data.  It is not intended as a substitute for an official pre-flight weather briefing.

14:51:12 UTC

KGUC TAF
Gunnison-Crested Butte Regional Airport
Gunnison, Colorado, USA
KGUC 231335Z 2314/2412 32006KT P6SM VCSH SCT007 BKN040 OVC050 TEMPO 2314/2316 5SM -SN BKN007 OVC040 FM231600 25010KT P6SM FEW025 SCT100 FM240500 01003KT P6SM SCT040 FM241100 04003KT P6SM SCT035 BKN050

Mar-23@
14:00 UTC

Mar-23 @ 14:00 UTC

Mar-23@
16:00 UTC

Mar-23 @ 16:00 UTC

KGUC 231335Z 2314/2412 32006KT P6SM VCSH SCT007 BKN040 OVC050
Wind
  • 320° at 6 KTS
Cloud Levels
  • Scattered at 700' AGL
  • Broken at 4,000' AGL
  • Overcast at 5,000' AGL

Mar-23@
14:00 UTC

Mar-23 @ 14:00 UTC

Mar-23@
16:00 UTC

Mar-23 @ 16:00 UTC

TEMPO 2314/2316 5SM -SN BKN007 OVC040

Temporary

Temporary Changes expected for less than half the time period

Conditions
Light Snow
Cloud Levels
  • Broken at 700' AGL
  • Overcast at 4,000' AGL

Mar-23@
16:00 UTC

Mar-23 @ 16:00 UTC

Mar-24@
05:00 UTC

Mar-24 @ 05:00 UTC

FM231600 25010KT P6SM FEW025 SCT100

From

From Standard forecast or significant change

Wind
  • 250° at 10 KTS
Cloud Levels
  • Few at 2,500' AGL
  • Scattered at 10,000' AGL

Mar-24@
05:00 UTC

Mar-24 @ 05:00 UTC

Mar-24@
11:00 UTC

Mar-24 @ 11:00 UTC

FM240500 01003KT P6SM SCT040

From

From Standard forecast or significant change

Wind
  • 010° at 3 KTS
Cloud Levels
  • Scattered at 4,000' AGL

Mar-24@
11:00 UTC

Mar-24 @ 11:00 UTC

Mar-24@
12:00 UTC

Mar-24 @ 12:00 UTC

FM241100 04003KT P6SM SCT035 BKN050

From

From Standard forecast or significant change

Wind
  • 040° at 3 KTS
Cloud Levels
  • Scattered at 3,500' AGL
  • Broken at 5,000' AGL